Skip Navigation Links Skip Navigation Links

Current Weather

Indian Springs Af Aux., Indian Springs, Nev.

For information only: do not use for flight planning or navigation.
Latest weather
Observation time Wednesday, August 12, 2020 9:58 AM PDT
Local time Wednesday, August 12, 2020 10:27 AM PDT
Flight conditions Visual Meteorological Conditions
Winds
Wind speed calm
Visibility 10 mi.
Sky condition
Ceiling unlimited
Sky clear
Temperature 87°F
Dewpoint 8°F
Altimeter 30.00 in.Hg
Derived measurements
Relative humidity 5%
Heat index 87°F
Density altitude 4867 ft.
Sea-level pressure 29.84 in.Hg
Remarks
Fully automated report.
System requires maintenance.
Automated weather observing station with precipitation discriminator.
METAR KINS 121658Z AUTO 00000KT 10SM CLR 31/M13 A3000 RMK AO2 SLP104 T03051134 $

Settings

Location code

InnerDrive.Weather 4.0.6770.0 Release CLR 4.0.30319.42000
Copyright ©2018 Inner Drive Technology. All rights reserved. Portions Copyright ©1986-2018 David Braverman.

Find weather

Site navigation


Skip Navigation Links

Place info

Page info

PayPal - The safer, easier way to pay online!

Return home.

Copyright ©2020 Inner Drive Technology. Purveyors of fine, hand-crafted computer software. Page printed 2020-08-12T17:27:04 UTC.